Time;durP1;ratioP1;P1;durP2;ratioP2;P2;SDS_P1;SDS_P2;PMS_P1;PMS_P2;Temp;Humidity;BMP_temperature;BMP_pressure;BME280_temperature;BME280_humidity;BME280_pressure;Samples;Min_cycle;Max_cycle;Signal;HPM_P1;HPM_P2
2021/03/22 00:01:16;;;;;;;14.80;9.43;;;;;;;1.01;76.90;95825.88;5051484;28;20053;-45
2021/03/22 00:03:44;;;;;;;15.48;9.93;;;;;;;0.66;78.45;95829.47;5052649;28;20099;-50
2021/03/22 00:06:11;;;;;;;17.00;10.27;;;;;;;0.60;78.82;95825.22;5032520;28;20049;-49
2021/03/22 00:08:37;;;;;;;15.32;9.63;;;;;;;0.56;79.28;95818.84;5031436;28;20076;-47
2021/03/22 00:11:05;;;;;;;17.67;10.68;;;;;;;0.60;78.92;95826.00;5036602;28;20071;-49
2021/03/22 00:13:32;;;;;;;18.48;11.25;;;;;;;0.57;79.00;95815.91;5050629;28;20114;-50
2021/03/22 00:16:03;;;;;;;17.77;10.48;;;;;;;0.72;78.99;95812.41;5050069;28;20448;-49
2021/03/22 00:18:33;;;;;;;15.63;9.60;;;;;;;0.82;77.96;95814.22;5053726;28;20095;-51
2021/03/22 00:21:00;;;;;;;19.83;10.00;;;;;;;0.67;78.51;95815.88;5055176;28;20302;-46
2021/03/22 00:23:26;;;;;;;16.90;10.10;;;;;;;0.66;79.01;95811.63;5052919;28;20260;-49
2021/03/22 00:25:53;;;;;;;15.68;10.48;;;;;;;0.62;79.22;95801.78;5051314;28;20051;-50
2021/03/22 00:28:22;;;;;;;17.98;10.15;;;;;;;0.63;78.98;95809.50;5055302;28;20445;-45
2021/03/22 00:30:48;;;;;;;18.65;9.82;;;;;;;0.73;78.83;95807.88;5062923;28;20421;-53
2021/03/22 00:33:17;;;;;;;17.92;9.77;;;;;;;0.84;78.16;95802.22;5051470;28;20045;-49
2021/03/22 00:35:44;;;;;;;14.65;9.45;;;;;;;0.68;79.07;95808.66;5043286;28;20479;-50
2021/03/22 00:38:12;;;;;;;17.05;9.77;;;;;;;0.66;78.82;95806.28;5044691;28;20056;-48
2021/03/22 00:40:43;;;;;;;17.13;10.00;;;;;;;0.61;79.18;95806.28;5053888;28;20045;-48
2021/03/22 00:43:11;;;;;;;17.98;10.30;;;;;;;0.60;79.33;95803.91;5052998;28;20502;-50
2021/03/22 00:45:52;;;;;;;16.90;10.32;;;;;;;0.62;79.33;95805.25;5048342;28;20045;-48
2021/03/22 00:48:19;;;;;;;17.90;9.32;;;;;;;0.68;78.93;95796.19;5051504;28;20045;-51
2021/03/22 00:50:46;;;;;;;19.63;10.82;;;;;;;0.63;79.48;95793.53;5053655;28;20059;-50
2021/03/22 00:53:14;;;;;;;15.38;9.43;;;;;;;0.59;79.41;95783.69;5053852;28;20076;-49
2021/03/22 00:55:41;;;;;;;17.08;9.85;;;;;;;0.76;78.61;95786.03;5046741;28;20103;-48
2021/03/22 00:58:09;;;;;;;18.92;10.82;;;;;;;0.93;78.40;95786.47;5034081;28;20053;-49
2021/03/22 01:00:40;;;;;;;20.63;10.07;;;;;;;0.72;79.16;95779.66;5053446;28;20048;-51
2021/03/22 01:03:11;;;;;;;15.45;9.25;;;;;;;0.55;79.70;95774.63;5050753;28;20459;-48
2021/03/22 01:05:38;;;;;;;20.45;10.57;;;;;;;0.64;79.78;95783.66;5053242;28;20436;-47
2021/03/22 01:08:05;;;;;;;16.80;10.18;;;;;;;0.67;79.41;95778.59;5040806;28;20072;-48
2021/03/22 01:11:14;;;;;;;17.70;9.88;;;;;;;0.76;79.14;95786.81;5073152;28;20052;-49
2021/03/22 01:13:45;;;;;;;18.35;10.73;;;;;;;0.80;79.01;95784.41;5045764;28;20091;-49
2021/03/22 01:16:38;;;;;;;20.25;10.93;;;;;;;0.70;79.41;95778.03;5035003;28;20187;-48
2021/03/22 01:19:14;;;;;;;16.35;9.10;;;;;;;0.64;79.60;95787.13;5040690;28;20122;-50
2021/03/22 01:21:55;;;;;;;17.55;10.68;;;;;;;0.55;79.99;95775.44;5051907;28;20053;-48
2021/03/22 01:24:24;;;;;;;17.92;10.60;;;;;;;0.73;79.40;95781.25;5043987;28;20046;-50
2021/03/22 01:26:54;;;;;;;17.98;10.07;;;;;;;0.75;79.00;95782.56;5031260;28;20415;-50
2021/03/22 01:29:41;;;;;;;18.27;9.75;;;;;;;0.72;79.22;95784.97;5043018;28;20057;-49
2021/03/22 01:32:10;;;;;;;16.42;9.25;;;;;;;0.70;79.47;95778.03;5043884;28;20053;-48
2021/03/22 01:34:41;;;;;;;15.60;9.55;;;;;;;0.68;79.54;95776.72;5032534;28;20060;-46
2021/03/22 01:37:08;;;;;;;16.40;9.50;;;;;;;0.74;79.29;95766.84;5031658;28;20045;-51
2021/03/22 01:39:37;;;;;;;18.13;9.52;;;;;;;0.66;79.72;95768.22;5043204;28;20056;-48
2021/03/22 01:42:19;;;;;;;16.95;10.30;;;;;;;0.64;79.92;95768.47;5050851;28;20053;-51
2021/03/22 01:44:59;;;;;;;18.27;10.20;;;;;;;0.50;80.40;95764.03;5052199;28;20380;-53
2021/03/22 01:47:31;;;;;;;22.42;10.57;;;;;;;0.55;80.51;95761.31;5035343;28;20052;-49
2021/03/22 01:50:09;;;;;;;20.70;10.50;;;;;;;0.57;80.38;95757.34;5057707;28;20049;-53
2021/03/22 01:52:40;;;;;;;19.60;10.57;;;;;;;0.67;80.20;95762.59;5032539;28;20287;-51
2021/03/22 01:55:08;;;;;;;17.85;11.00;;;;;;;0.66;80.15;95762.91;5047903;28;20530;-51
2021/03/22 01:57:46;;;;;;;19.35;10.20;;;;;;;0.64;80.11;95757.81;5031546;28;20053;-51
2021/03/22 02:00:32;;;;;;;17.45;9.95;;;;;;;0.47;80.98;95752.84;5062477;28;20086;-51
2021/03/22 02:03:10;;;;;;;22.30;10.60;;;;;;;0.81;79.94;95751.34;5071743;28;20402;-50
2021/03/22 02:05:42;;;;;;;19.90;10.52;;;;;;;0.78;79.74;95762.56;5048766;28;20091;-54
2021/03/22 02:08:12;;;;;;;22.45;12.00;;;;;;;0.84;79.57;95748.16;5042953;28;20049;-53
2021/03/22 02:10:41;;;;;;;21.58;11.05;;;;;;;0.70;80.08;95756.75;5063575;28;20053;-51
2021/03/22 02:13:09;;;;;;;22.45;11.27;;;;;;;1.06;78.82;95751.22;5063267;28;20041;-48
2021/03/22 02:15:38;;;;;;;21.40;11.30;;;;;;;0.82;79.16;95760.97;5032413;28;20091;-49
2021/03/22 02:18:11;;;;;;;20.60;10.25;;;;;;;0.65;80.36;95754.13;5038359;28;20132;-46
2021/03/22 02:21:10;;;;;;;17.83;9.88;;;;;;;0.73;80.00;95776.69;5054672;28;20067;-47
2021/03/22 02:23:58;;;;;;;17.10;9.77;;;;;;;0.73;79.95;95771.38;5053077;28;20082;-49
2021/03/22 02:26:43;;;;;;;16.65;8.65;;;;;;;0.54;80.78;95770.41;5053831;28;20129;-50
2021/03/22 02:29:22;;;;;;;17.73;9.60;;;;;;;0.62;80.78;95769.84;5073105;28;20099;-45
2021/03/22 02:32:26;;;;;;;20.90;11.27;;;;;;;0.76;80.45;95786.81;5074534;28;20048;-51
2021/03/22 02:34:55;;;;;;;17.30;9.90;;;;;;;0.82;80.08;95782.25;5046325;28;20049;-52
2021/03/22 02:37:36;;;;;;;20.55;10.25;;;;;;;0.86;80.21;95785.97;5031833;28;20104;-50
2021/03/22 02:40:11;;;;;;;19.80;10.77;;;;;;;0.76;80.27;95792.13;5034157;28;20477;-47
2021/03/22 02:42:43;;;;;;;16.70;10.10;;;;;;;0.66;80.80;95787.66;5034136;28;20050;-45
2021/03/22 02:45:17;;;;;;;25.42;11.55;;;;;;;0.52;81.70;95783.16;5038653;28;20045;-45
2021/03/22 02:47:44;;;;;;;22.27;10.98;;;;;;;0.69;81.05;95791.63;5034442;28;20049;-47
2021/03/22 02:50:19;;;;;;;21.05;11.63;;;;;;;0.72;80.93;95791.09;5053728;28;20057;-46
2021/03/22 02:53:13;;;;;;;22.38;11.63;;;;;;;0.97;80.34;95797.38;5055403;28;20126;-52
2021/03/22 02:55:57;;;;;;;18.35;9.45;;;;;;;0.62;81.32;95797.25;5039648;28;20041;-50
2021/03/22 02:58:32;;;;;;;21.35;10.70;;;;;;;0.67;81.20;95785.78;5034144;28;20073;-45
2021/03/22 03:01:25;;;;;;;20.80;10.98;;;;;;;0.61;81.51;95795.66;5046533;28;20045;-44
2021/03/22 03:03:55;;;;;;;19.55;11.30;;;;;;;0.70;81.29;95798.56;5039122;28;20391;-50
2021/03/22 03:06:40;;;;;;;22.55;11.88;;;;;;;0.83;80.81;95802.50;5049140;28;20048;-53
2021/03/22 03:09:07;;;;;;;18.23;10.48;;;;;;;0.85;80.75;95811.03;5054223;28;20082;-45
2021/03/22 03:11:34;;;;;;;21.27;10.75;;;;;;;0.79;80.70;95806.78;5053577;28;20059;-50
2021/03/22 03:14:00;;;;;;;19.27;10.90;;;;;;;0.80;80.49;95813.69;5053050;28;20041;-48
2021/03/22 03:16:27;;;;;;;23.25;11.30;;;;;;;0.81;80.52;95815.28;5056986;28;20053;-49
2021/03/22 03:18:53;;;;;;;20.52;11.00;;;;;;;1.04;80.08;95819.16;5033743;28;20072;-49
2021/03/22 03:21:20;;;;;;;19.25;10.48;;;;;;;1.15;78.96;95824.19;5049970;28;20638;-45
2021/03/22 03:23:47;;;;;;;17.60;10.25;;;;;;;0.79;80.32;95817.44;5052838;28;20518;-49
2021/03/22 03:26:13;;;;;;;22.15;10.55;;;;;;;1.00;79.96;95820.78;5037183;28;20053;-47
2021/03/22 03:28:40;;;;;;;20.05;10.90;;;;;;;0.78;80.74;95823.81;5032283;28;20060;-47
2021/03/22 03:31:06;;;;;;;20.50;10.43;;;;;;;0.86;80.23;95825.91;5052244;28;20048;-45
2021/03/22 03:33:33;;;;;;;22.27;10.07;;;;;;;0.73;80.94;95824.63;5052266;28;20120;-50
2021/03/22 03:35:59;;;;;;;18.95;9.95;;;;;;;0.80;80.30;95822.47;5033023;28;20045;-46
2021/03/22 03:38:26;;;;;;;20.60;10.10;;;;;;;0.68;80.88;95821.97;5032184;28;20058;-45
2021/03/22 03:40:52;;;;;;;21.05;10.00;;;;;;;0.69;80.66;95832.38;5050197;28;20564;-48
2021/03/22 03:43:20;;;;;;;23.15;10.52;;;;;;;0.61;81.18;95822.28;5052971;28;20053;-51
2021/03/22 03:45:49;;;;;;;21.88;10.70;;;;;;;0.82;80.42;95822.22;5052765;28;20565;-46
2021/03/22 03:48:22;;;;;;;18.05;9.15;;;;;;;0.74;80.56;95825.44;5044072;28;20057;-48
2021/03/22 03:50:51;;;;;;;19.45;10.48;;;;;;;0.82;79.99;95820.34;5054925;28;20048;-52
2021/03/22 03:53:18;;;;;;;21.42;9.98;;;;;;;0.59;81.21;95819.09;5054660;28;20079;-49
2021/03/22 03:55:44;;;;;;;19.30;9.93;;;;;;;0.81;80.54;95816.06;5045635;28;20041;-49
2021/03/22 03:58:11;;;;;;;22.80;9.40;;;;;;;0.64;81.24;95812.94;5044101;28;20049;-52
2021/03/22 04:00:42;;;;;;;21.75;9.45;;;;;;;0.80;80.84;95821.69;5053421;28;20102;-49
2021/03/22 04:03:25;;;;;;;21.45;10.65;;;;;;;0.66;81.18;95819.59;5054164;28;20155;-49
2021/03/22 04:05:57;;;;;;;20.95;10.05;;;;;;;0.67;81.08;95817.72;5045065;28;20077;-52
2021/03/22 04:08:25;;;;;;;22.05;10.80;;;;;;;0.75;81.04;95821.69;5038699;28;20060;-50
2021/03/22 04:10:53;;;;;;;19.40;10.63;;;;;;;0.70;nan;95825.97;5054761;28;20042;-52
2021/03/22 04:13:20;;;;;;;24.10;9.50;;;;;;;0.69;81.21;95827.06;5041073;28;20530;-50
2021/03/22 04:15:47;;;;;;;23.38;11.25;;;;;;;0.73;81.27;95827.31;5053460;28;20076;-50
2021/03/22 04:18:32;;;;;;;21.50;10.95;;;;;;;0.71;81.46;95824.09;5053783;28;20049;-46
2021/03/22 04:20:59;;;;;;;22.50;10.40;;;;;;;0.62;81.55;95828.41;5052860;28;20053;-49
2021/03/22 04:23:26;;;;;;;23.25;9.68;;;;;;;0.63;81.78;95830.78;5052811;28;20060;-50
2021/03/22 04:25:53;;;;;;;26.50;11.60;;;;;;;0.53;82.29;95833.50;5053793;28;20407;-51
2021/03/22 04:28:19;;;;;;;29.48;10.80;;;;;;;0.60;82.06;95839.31;5053354;28;20049;-52
2021/03/22 04:30:46;;;;;;;19.05;9.27;;;;;;;0.57;82.02;95837.19;5051120;28;20140;-48
2021/03/22 04:33:12;;;;;;;22.42;10.25;;;;;;;0.73;81.65;95829.16;5033988;28;20057;-50
2021/03/22 04:35:39;;;;;;;23.63;10.90;;;;;;;0.96;80.44;95833.88;5039664;28;20490;-50
2021/03/22 04:38:06;;;;;;;25.58;10.40;;;;;;;0.91;80.27;95828.53;5039445;28;20599;-48
2021/03/22 04:40:32;;;;;;;24.20;10.52;;;;;;;0.86;80.55;95823.25;5052998;28;20064;-48
2021/03/22 04:42:59;;;;;;;25.40;11.68;;;;;;;0.68;80.99;95828.13;5053711;28;20052;-49
2021/03/22 04:45:30;;;;;;;25.58;10.40;;;;;;;0.87;80.59;95822.19;5053905;28;20042;-50
2021/03/22 04:47:57;;;;;;;23.63;9.93;;;;;;;0.91;80.14;95831.22;5046540;28;20056;-49
2021/03/22 04:50:26;;;;;;;22.48;9.07;;;;;;;0.53;81.42;95830.81;5070162;28;20063;-47
2021/03/22 04:52:52;;;;;;;20.00;10.32;;;;;;;0.67;81.14;95831.03;5074086;28;20524;-49
2021/03/22 04:55:21;;;;;;;21.33;10.80;;;;;;;0.61;81.48;95826.81;5060012;28;20076;-47
2021/03/22 04:57:47;;;;;;;22.20;9.32;;;;;;;0.59;81.29;95832.41;5053000;28;20053;-50
2021/03/22 05:00:21;;;;;;;23.80;10.23;;;;;;;0.75;80.64;95838.50;5053357;28;20069;-49
2021/03/22 05:02:48;;;;;;;20.83;9.70;;;;;;;0.80;80.46;95838.44;5051728;28;20115;-53
2021/03/22 05:05:16;;;;;;;21.58;8.88;;;;;;;0.79;80.85;95838.75;5034019;28;20064;-51
2021/03/22 05:07:42;;;;;;;30.13;10.40;;;;;;;0.57;81.48;95839.84;5050908;28;20056;-51
2021/03/22 05:10:12;;;;;;;20.45;10.15;;;;;;;0.76;80.94;95837.41;5054356;28;20060;-50
2021/03/22 05:12:38;;;;;;;22.25;10.13;;;;;;;0.79;80.48;95839.53;5055657;28;20060;-54
2021/03/22 05:15:07;;;;;;;19.95;9.35;;;;;;;0.97;80.00;95842.66;5036082;28;20080;-47
2021/03/22 05:17:33;;;;;;;24.63;10.27;;;;;;;0.85;80.14;95843.78;5035711;28;20398;-47
2021/03/22 05:20:00;;;;;;;25.90;10.30;;;;;;;0.84;80.26;95849.34;5055103;28;20049;-47
2021/03/22 05:22:27;;;;;;;23.80;9.15;;;;;;;0.69;80.91;95855.53;5055338;28;20049;-51
2021/03/22 05:24:53;;;;;;;25.10;10.90;;;;;;;0.89;79.97;95866.13;5051214;28;20075;-49
2021/03/22 05:27:20;;;;;;;19.67;9.05;;;;;;;0.90;79.75;95848.28;5043115;28;20055;-49
2021/03/22 05:29:46;;;;;;;24.48;9.10;;;;;;;0.83;79.95;95855.75;5053630;28;20056;-51
2021/03/22 05:32:28;;;;;;;25.40;9.35;;;;;;;0.93;79.87;95853.06;5051544;28;20045;-48
2021/03/22 05:34:54;;;;;;;24.35;8.98;;;;;;;0.84;80.19;95842.16;5046907;28;20105;-49
2021/03/22 05:37:21;;;;;;;26.63;10.63;;;;;;;1.01;79.45;95849.84;5035829;28;20054;-48
2021/03/22 05:39:48;;;;;;;27.50;9.27;;;;;;;1.14;78.63;95848.47;5032913;28;20475;-50
2021/03/22 05:42:23;;;;;;;26.35;10.07;;;;;;;0.99;79.16;95853.84;5043587;28;20075;-48
2021/03/22 05:45:05;;;;;;;21.85;7.90;;;;;;;0.85;79.81;95853.63;5054889;28;20076;-50
2021/03/22 05:47:45;;;;;;;20.20;9.10;;;;;;;0.85;79.45;95858.97;5052207;28;20068;-52
2021/03/22 05:50:18;;;;;;;25.08;8.15;;;;;;;1.01;78.92;95863.16;5056813;28;20514;-49
2021/03/22 05:52:59;;;;;;;21.08;8.02;;;;;;;0.99;78.72;95857.28;5052656;28;20091;-48
2021/03/22 05:55:33;;;;;;;22.67;7.40;;;;;;;1.07;78.12;95862.06;5050619;28;20439;-50
2021/03/22 05:58:05;;;;;;;22.77;8.75;;;;;;;1.09;78.39;95870.56;5032606;28;20057;-48
2021/03/22 06:00:43;;;;;;;23.83;6.43;;;;;;;1.04;78.07;95873.28;5049885;28;20417;-50
2021/03/22 06:03:27;;;;;;;21.48;7.20;;;;;;;1.31;77.20;95882.75;5043620;28;20060;-50
2021/03/22 06:06:34;;;;;;;20.83;7.05;;;;;;;0.96;77.42;95879.16;5029067;28;20411;-48
2021/03/22 06:09:06;;;;;;;18.15;7.03;;;;;;;1.05;77.39;95882.84;5033591;28;20452;-48
2021/03/22 06:11:33;;;;;;;19.08;6.10;;;;;;;1.04;76.75;95886.59;5062733;28;20059;-49
2021/03/22 06:14:04;;;;;;;26.88;6.82;;;;;;;1.10;77.09;95893.47;5075749;28;20129;-47
2021/03/22 06:16:38;;;;;;;21.15;6.88;;;;;;;1.05;76.66;95888.19;5053832;28;20549;-51
2021/03/22 06:19:10;;;;;;;19.55;6.43;;;;;;;1.25;76.67;95899.81;5056011;28;20064;-54
2021/03/22 06:21:40;;;;;;;23.50;7.93;;;;;;;1.54;75.44;95892.75;5054362;28;20143;-47
2021/03/22 06:24:15;;;;;;;26.10;6.88;;;;;;;1.50;75.20;95894.38;5052322;28;20057;-49
2021/03/22 06:26:50;;;;;;;22.50;5.82;;;;;;;1.36;75.70;95891.50;5036500;28;20045;-49
2021/03/22 06:29:22;;;;;;;19.48;7.50;;;;;;;1.36;75.08;95891.50;5048137;28;20060;-48
2021/03/22 06:31:53;;;;;;;21.40;5.77;;;;;;;1.31;75.34;95896.06;5047636;28;20073;-48
2021/03/22 06:34:33;;;;;;;16.52;5.55;;;;;;;1.37;75.07;95892.31;5044805;28;20071;-49
2021/03/22 06:36:59;;;;;;;17.75;5.85;;;;;;;1.30;75.29;95900.63;5043626;28;20685;-48
2021/03/22 06:39:26;;;;;;;22.27;7.03;;;;;;;1.39;75.44;95908.81;5053057;28;20059;-49
2021/03/22 06:41:54;;;;;;;19.95;6.65;;;;;;;1.35;74.46;95905.91;5065884;28;20119;-47
2021/03/22 06:44:32;;;;;;;26.38;6.07;;;;;;;1.32;75.15;95911.78;5072164;28;20048;-47
2021/03/22 06:47:04;;;;;;;16.73;5.97;;;;;;;1.38;75.12;95910.69;5049352;28;20056;-47
2021/03/22 06:49:37;;;;;;;24.05;5.75;;;;;;;1.49;74.75;95921.31;5035189;28;20048;-46
2021/03/22 06:52:22;;;;;;;23.85;6.72;;;;;;;1.46;74.62;95919.97;5054031;28;20068;-45
2021/03/22 06:54:55;;;;;;;20.15;5.60;;;;;;;1.50;75.01;95929.03;5036587;28;20061;-50
2021/03/22 06:57:26;;;;;;;24.42;7.13;;;;;;;1.43;75.18;95928.53;5056707;28;20464;-49
2021/03/22 07:00:18;;;;;;;19.30;6.10;;;;;;;1.32;75.45;95921.66;5033264;28;20132;-49
2021/03/22 07:02:54;;;;;;;20.83;5.10;;;;;;;1.38;75.89;95933.88;5052152;28;20049;-47
2021/03/22 07:05:33;;;;;;;16.73;4.93;;;;;;;1.24;76.25;95938.22;5030224;28;20050;-51
2021/03/22 07:08:03;;;;;;;23.35;5.93;;;;;;;1.31;76.36;95939.50;5039336;28;20061;-51
2021/03/22 07:10:31;;;;;;;18.23;5.00;;;;;;;1.37;76.18;95945.63;5031862;28;20107;-52
2021/03/22 07:13:24;;;;;;;23.58;7.32;;;;;;;1.32;75.70;95946.44;5031794;28;20068;-55
2021/03/22 07:15:56;;;;;;;16.08;5.15;;;;;;;1.43;75.94;95949.06;5045101;28;20049;-50
2021/03/22 07:18:30;;;;;;;18.75;6.10;;;;;;;1.35;75.94;95959.22;5030245;28;20060;-52
2021/03/22 07:20:57;;;;;;;19.45;5.20;;;;;;;1.66;75.09;95955.59;5048494;28;20095;-52
2021/03/22 07:23:46;;;;;;;19.48;5.50;;;;;;;1.98;73.80;95950.66;5047836;28;20387;-51
2021/03/22 07:26:31;;;;;;;22.70;5.95;;;;;;;2.01;73.47;95959.94;5035415;28;20434;-55
2021/03/22 07:29:16;;;;;;;25.15;5.82;;;;;;;1.82;73.62;95965.13;5043666;28;20049;-50
2021/03/22 07:32:08;;;;;;;24.70;7.47;;;;;;;2.14;73.38;95958.53;5053778;28;20037;-49
2021/03/22 07:34:53;;;;;;;27.63;5.25;;;;;;;2.14;71.65;95964.66;5035596;28;20384;-49
2021/03/22 07:37:42;;;;;;;20.60;5.00;;;;;;;2.20;72.01;95968.09;5040490;28;20513;-55
2021/03/22 07:40:34;;;;;;;24.95;5.60;;;;;;;2.08;71.23;95965.78;5048491;28;20464;-51
2021/03/22 07:43:14;;;;;;;22.92;5.22;;;;;;;1.82;71.49;95970.47;5069262;28;20060;-52
2021/03/22 07:46:29;;;;;;;20.98;4.75;;;;;;;1.92;71.23;95972.28;5064154;28;20051;-53
2021/03/22 07:49:37;;;;;;;19.45;4.93;;;;;;;2.10;70.91;95969.75;5048659;28;20534;-52
2021/03/22 07:52:23;;;;;;;18.73;4.28;;;;;;;1.97;69.86;95975.72;5062883;28;20052;-55
2021/03/22 07:55:27;;;;;;;23.48;4.28;;;;;;;2.14;69.86;95977.22;5069131;28;20054;-52
2021/03/22 07:58:18;;;;;;;23.45;4.78;;;;;;;2.31;69.36;95966.97;5050688;28;20053;-53
2021/03/22 08:01:12;;;;;;;21.20;5.20;;;;;;;2.55;69.28;95973.19;5061074;28;20049;-56
2021/03/22 08:03:54;;;;;;;22.38;5.50;;;;;;;2.56;68.58;95977.44;5057536;28;20072;-47
2021/03/22 08:06:50;;;;;;;25.25;4.50;;;;;;;2.52;68.51;95976.41;5055016;28;20444;-53
2021/03/22 08:09:42;;;;;;;22.77;4.75;;;;;;;2.48;67.72;95980.72;5061256;28;20060;-55
2021/03/22 08:12:22;;;;;;;22.15;4.70;;;;;;;2.34;67.96;95974.44;5055229;28;20061;-53
2021/03/22 08:14:57;;;;;;;15.50;4.40;;;;;;;2.30;68.08;95978.72;5056988;28;20044;-56
2021/03/22 08:17:41;;;;;;;20.13;3.95;;;;;;;2.38;68.08;95980.00;5051396;28;20053;-56
2021/03/22 08:20:20;;;;;;;21.23;4.57;;;;;;;2.37;68.54;95987.19;5055906;28;20052;-53
2021/03/22 08:22:55;;;;;;;15.35;4.47;;;;;;;2.31;69.24;95986.47;5048775;28;20480;-54
2021/03/22 08:25:46;;;;;;;21.85;5.32;;;;;;;2.17;68.80;95990.81;5050963;28;20056;-52
2021/03/22 08:28:31;;;;;;;15.18;3.50;;;;;;;2.24;68.36;95985.16;5048779;28;20408;-52
2021/03/22 08:31:11;;;;;;;20.15;4.72;;;;;;;2.29;68.51;95985.94;5055297;28;20123;-55
2021/03/22 08:33:49;;;;;;;13.95;4.43;;;;;;;2.22;66.43;95992.66;5061481;28;20052;-50
2021/03/22 08:36:34;;;;;;;22.75;4.18;;;;;;;2.34;67.16;95993.13;5049953;28;20486;-52
2021/03/22 08:39:23;;;;;;;18.52;4.13;;;;;;;2.41;66.91;96000.81;5051597;28;20055;-49
2021/03/22 08:42:16;;;;;;;25.05;7.22;;;;;;;2.30;67.19;95994.72;5055436;28;20052;-50
2021/03/22 08:44:43;;;;;;;14.07;4.47;;;;;;;2.21;67.65;96007.06;5052477;28;20040;-51
2021/03/22 08:47:24;;;;;;;22.92;4.43;;;;;;;2.09;68.40;96005.53;5055116;28;20090;-48
2021/03/22 08:49:56;;;;;;;20.95;4.72;;;;;;;2.31;67.81;96013.16;5054897;28;20044;-52
2021/03/22 08:52:31;;;;;;;22.37;4.53;;;;;;;2.32;67.64;96008.59;5040599;28;20056;-51
2021/03/22 08:55:09;;;;;;;21.98;4.68;;;;;;;2.37;67.42;96005.88;5055674;28;20877;-50
2021/03/22 08:57:44;;;;;;;19.60;4.65;;;;;;;2.20;67.93;96011.59;5074857;28;20052;-52
2021/03/22 09:00:25;;;;;;;28.08;5.30;;;;;;;2.30;67.27;96021.41;5065276;28;20422;-51
2021/03/22 09:02:54;;;;;;;22.65;4.88;;;;;;;2.76;66.45;96023.75;5056039;28;20084;-52
2021/03/22 09:05:25;;;;;;;15.07;4.38;;;;;;;2.72;66.59;96025.41;5050903;28;20045;-49
2021/03/22 09:08:12;;;;;;;22.35;4.88;;;;;;;2.95;65.93;96026.53;5052147;28;20076;-52
2021/03/22 09:10:41;;;;;;;20.98;4.15;;;;;;;2.87;65.27;96027.94;5053888;28;20055;-51
2021/03/22 09:13:37;;;;;;;23.27;4.45;;;;;;;3.00;65.61;96023.84;5054073;28;21433;-54
2021/03/22 09:16:14;;;;;;;20.30;5.03;;;;;;;2.75;65.89;96024.84;5026191;28;20454;-51
2021/03/22 09:19:03;;;;;;;20.75;4.18;;;;;;;2.30;67.43;96029.44;5057932;28;20056;-46
2021/03/22 09:21:30;;;;;;;19.85;4.68;;;;;;;2.49;67.99;96040.25;5037727;28;20115;-50
2021/03/22 09:23:56;;;;;;;26.45;6.90;;;;;;;2.63;67.69;96043.88;5056267;28;20075;-50
2021/03/22 09:26:51;;;;;;;16.20;3.90;;;;;;;2.37;66.96;96035.25;5052290;28;20491;-53
2021/03/22 09:29:44;;;;;;;24.30;4.75;;;;;;;2.57;65.76;96053.84;5050866;28;20045;-52
2021/03/22 09:34:58;;;;;;;17.65;4.85;;;;;;;2.79;66.72;96044.56;5054702;28;20136;-53
2021/03/22 09:37:44;;;;;;;19.43;4.77;;;;;;;2.94;66.35;96051.69;5049875;28;20443;-50
2021/03/22 09:40:23;;;;;;;27.05;5.18;;;;;;;3.02;67.26;96054.56;5062482;28;20678;-53
2021/03/22 09:43:19;;;;;;;28.75;5.80;;;;;;;3.14;66.26;96051.50;5054537;28;20053;-52
2021/03/22 09:45:52;;;;;;;19.00;5.05;;;;;;;3.16;65.96;96053.91;5047522;28;20044;-52
2021/03/22 09:48:26;;;;;;;18.15;4.75;;;;;;;3.12;64.89;96060.88;5044934;28;20133;-54
2021/03/22 09:51:03;;;;;;;19.27;5.10;;;;;;;2.91;65.18;96052.25;5050503;28;20160;-55
2021/03/22 09:53:59;;;;;;;20.10;4.50;;;;;;;2.88;63.83;96050.91;5061171;28;20127;-49
2021/03/22 09:56:35;;;;;;;17.10;4.88;;;;;;;3.01;64.44;96052.94;5053469;28;20041;-56
2021/03/22 09:59:34;;;;;;;21.63;4.43;;;;;;;3.32;63.61;96052.69;5044784;28;20514;-52
2021/03/22 10:02:38;;;;;;;14.02;4.50;;;;;;;2.87;65.01;96044.00;5049589;28;20048;-52
2021/03/22 10:05:25;;;;;;;16.13;4.68;;;;;;;2.62;66.30;96053.00;5049472;28;20542;-51
2021/03/22 10:07:55;;;;;;;17.48;6.03;;;;;;;2.53;66.50;96047.44;5049750;28;20048;-55
2021/03/22 10:10:29;;;;;;;19.58;6.50;;;;;;;2.71;66.78;96050.53;5048657;28;20071;-54
2021/03/22 10:13:01;;;;;;;18.10;4.30;;;;;;;2.73;67.52;96046.50;5048678;28;20546;-52
2021/03/22 10:15:34;;;;;;;26.17;5.10;;;;;;;2.66;67.38;96053.22;5054883;28;21834;-49
2021/03/22 10:18:24;;;;;;;19.10;5.10;;;;;;;2.91;67.35;96052.25;5047629;28;20068;-50
2021/03/22 10:21:22;;;;;;;17.92;4.68;;;;;;;2.47;69.53;96053.91;5046453;28;20068;-50
2021/03/22 10:24:21;;;;;;;19.85;5.93;;;;;;;2.87;67.71;96044.00;5050414;28;20075;-51
2021/03/22 10:26:51;;;;;;;16.48;4.60;;;;;;;2.60;68.39;96049.00;5050879;28;20040;-55
2021/03/22 10:29:21;;;;;;;19.00;4.93;;;;;;;2.72;68.06;96047.56;5046770;28;20057;-51
2021/03/22 10:31:49;;;;;;;19.40;5.50;;;;;;;2.72;67.13;96044.09;5051492;28;20051;-48
2021/03/22 10:34:23;;;;;;;16.35;4.88;;;;;;;2.91;66.53;96045.00;5041542;28;20041;-53
2021/03/22 10:36:51;;;;;;;13.35;4.68;;;;;;;3.07;64.71;96042.22;5048853;28;20068;-47
2021/03/22 10:39:37;;;;;;;19.17;4.55;;;;;;;3.25;64.84;96049.50;5051517;28;20056;-53
2021/03/22 10:42:40;;;;;;;20.17;5.05;;;;;;;3.21;65.19;96041.25;5056273;28;20056;-49
2021/03/22 10:45:18;;;;;;;13.65;3.97;;;;;;;2.78;65.71;96041.09;5057085;28;20502;-50
2021/03/22 10:47:44;;;;;;;16.98;4.70;;;;;;;3.36;65.21;96055.56;5038858;28;20044;-47
2021/03/22 10:50:19;;;;;;;24.67;4.80;;;;;;;3.33;64.24;96038.22;5061217;28;20048;-52
2021/03/22 10:53:11;;;;;;;17.17;4.85;;;;;;;3.57;63.84;96048.13;5059316;28;20053;-54
2021/03/22 10:55:44;;;;;;;18.42;4.80;;;;;;;3.13;64.83;96049.91;5060061;28;20051;-50
2021/03/22 10:58:33;;;;;;;17.88;4.28;;;;;;;3.66;64.22;96041.06;5062732;28;20075;-53
2021/03/22 11:01:03;;;;;;;17.25;5.07;;;;;;;3.00;65.27;96045.22;5052381;28;20061;-52
2021/03/22 11:03:31;;;;;;;15.18;4.60;;;;;;;2.63;67.11;96045.75;5047618;28;20110;-50
2021/03/22 11:05:59;;;;;;;17.50;5.15;;;;;;;2.70;67.81;96054.28;5061324;28;20052;-53
2021/03/22 11:08:35;;;;;;;15.90;5.38;;;;;;;2.51;68.02;96051.47;5040647;28;20052;-51
2021/03/22 11:11:18;;;;;;;23.98;5.88;;;;;;;2.68;68.31;96053.75;5064805;28;20052;-49
2021/03/22 11:13:49;;;;;;;30.52;5.35;;;;;;;2.76;68.52;96055.81;5050287;28;20072;-54
2021/03/22 11:16:26;;;;;;;18.80;5.25;;;;;;;2.47;66.66;96064.59;5044359;28;20150;-50
2021/03/22 11:18:55;;;;;;;20.13;4.43;;;;;;;2.42;65.58;96061.16;5056571;28;20055;-49
2021/03/22 11:21:24;;;;;;;14.30;5.22;;;;;;;2.65;65.44;96063.13;5047165;28;20057;-51
2021/03/22 11:23:54;;;;;;;17.02;5.40;;;;;;;2.80;64.89;96056.88;5053470;28;20133;-52
2021/03/22 11:26:25;;;;;;;21.40;5.40;;;;;;;2.70;65.10;96052.41;5045913;28;20129;-50
2021/03/22 11:29:21;;;;;;;17.27;6.65;;;;;;;2.83;66.07;96052.81;5050326;28;20538;-50
2021/03/22 11:31:49;;;;;;;12.38;4.25;;;;;;;2.77;66.54;96052.09;5051190;28;20048;-50
2021/03/22 11:34:24;;;;;;;14.25;4.43;;;;;;;3.14;66.19;96056.84;5056091;28;20052;-49
2021/03/22 11:37:20;;;;;;;21.25;5.22;;;;;;;3.59;64.83;96048.66;5046988;28;20045;-50
2021/03/22 11:40:05;;;;;;;16.45;4.75;;;;;;;3.58;62.64;96055.88;5045890;28;20440;-49
2021/03/22 11:42:50;;;;;;;22.83;5.93;;;;;;;3.69;62.90;96051.22;5045943;28;20049;-50
2021/03/22 11:45:26;;;;;;;15.02;4.70;;;;;;;3.36;62.51;96052.91;5049941;28;20056;-46
2021/03/22 11:47:53;;;;;;;14.57;4.40;;;;;;;3.39;61.67;96058.47;5034926;28;20490;-46
2021/03/22 11:50:26;;;;;;;19.77;5.13;;;;;;;3.30;62.55;96054.81;5054211;28;20052;-47
2021/03/22 11:53:25;;;;;;;14.07;4.90;;;;;;;3.46;62.02;96050.13;5058543;28;20110;-47
2021/03/22 11:56:14;;;;;;;22.05;5.05;;;;;;;3.38;62.20;96051.53;5016485;28;20514;-50
2021/03/22 11:58:42;;;;;;;18.48;4.53;;;;;;;3.36;63.15;96055.56;5054878;28;20077;-54
2021/03/22 12:01:24;;;;;;;15.60;3.40;;;;;;;2.96;61.83;96058.34;5046251;28;20548;-54
2021/03/22 12:04:03;;;;;;;14.15;3.67;;;;;;;2.93;62.11;96050.88;5042976;28;20061;-45
2021/03/22 12:06:50;;;;;;;11.27;3.35;;;;;;;2.85;62.11;96062.16;5045652;28;20067;-47
2021/03/22 12:09:16;;;;;;;12.63;3.70;;;;;;;2.89;60.99;96060.53;5046126;28;20048;-53
2021/03/22 12:11:43;;;;;;;16.77;4.13;;;;;;;2.77;61.58;96057.44;5056127;28;20422;-48
2021/03/22 12:14:10;;;;;;;14.07;4.07;;;;;;;2.98;62.54;96055.38;5053689;28;20063;-47